Time;durP1;ratioP1;P1;durP2;ratioP2;P2;SDS_P1;SDS_P2;PMS_P1;PMS_P2;Temp;Humidity;BMP_temperature;BMP_pressure;BME280_temperature;BME280_humidity;BME280_pressure;Samples;Min_cycle;Max_cycle;Signal;HPM_P1;HPM_P2
2023/11/10 00:00:01;;;;;;;0.93;0.50;;;;;;;-145.69;52.04;52210.72;5115822;28;20190;-82
2023/11/10 00:02:27;;;;;;;1.53;0.80;;;;;;;-145.69;51.83;52220.59;5115562;28;20225;-82
2023/11/10 00:04:53;;;;;;;0.70;0.70;;;;;;;-145.69;50.97;52226.53;5115322;28;20204;-81
2023/11/10 00:07:20;;;;;;;0.97;0.63;;;;;;;-145.69;51.86;52214.66;5116385;28;20222;-82
2023/11/10 00:09:47;;;;;;;1.27;0.70;;;;;;;-145.69;51.62;52200.81;5115694;28;20193;-81
2023/11/10 00:12:14;;;;;;;0.70;0.60;;;;;;;-145.69;51.76;52208.72;5127916;27;20201;-82
2023/11/10 00:14:41;;;;;;;0.63;0.63;;;;;;;-145.69;51.76;52210.72;5136699;27;20205;-82
2023/11/10 00:17:10;;;;;;;2.80;0.70;;;;;;;-145.69;50.99;52226.53;5136363;27;20209;-81
2023/11/10 00:19:37;;;;;;;0.60;0.60;;;;;;;-145.69;51.50;52200.81;5136230;27;20197;-82
2023/11/10 00:22:04;;;;;;;0.57;0.50;;;;;;;-145.69;51.26;52214.66;5117704;27;20307;-82
2023/11/10 00:24:33;;;;;;;2.27;0.60;;;;;;;-145.69;51.86;52198.81;5115465;28;20667;-83
2023/11/10 00:26:59;;;;;;;0.50;0.50;;;;;;;-145.69;51.88;52216.66;5115508;28;20229;-82
2023/11/10 00:29:28;;;;;;;0.97;0.67;;;;;;;-145.69;51.57;52242.38;5115319;28;20201;-82
2023/11/10 00:31:56;;;;;;;0.80;0.43;;;;;;;-145.69;51.46;52218.63;5094877;28;20652;-82
2023/11/10 00:34:23;;;;;;;4.00;0.70;;;;;;;-145.69;51.55;52202.78;5095536;28;20194;-82
2023/11/10 00:36:50;;;;;;;0.40;0.40;;;;;;;-145.69;52.16;52218.63;5095028;28;20201;-82
2023/11/10 00:39:19;;;;;;;3.30;0.70;;;;;;;-145.69;51.52;52226.53;5094963;28;20209;-82
2023/11/10 00:41:46;;;;;;;0.40;0.40;;;;;;;-145.69;51.73;52250.31;5102246;28;20703;-82
2023/11/10 00:44:12;;;;;;;0.50;0.50;;;;;;;-145.69;51.67;52202.78;5115028;28;20197;-81
2023/11/10 00:46:39;;;;;;;1.10;0.47;;;;;;;-145.69;52.16;52175.06;5114945;28;20198;-81
2023/11/10 00:49:05;;;;;;;0.70;0.50;;;;;;;-145.69;52.56;52234.47;5114910;28;20193;-82
2023/11/10 00:51:33;;;;;;;0.70;0.50;;;;;;;-145.69;52.04;52234.47;5114592;28;20193;-83
2023/11/10 00:54:00;;;;;;;2.00;0.80;;;;;;;-145.69;52.34;52200.81;5114969;28;20197;-82
2023/11/10 00:56:27;;;;;;;1.13;0.50;;;;;;;-145.69;51.85;52202.78;5114658;28;20560;-81
2023/11/10 00:58:53;;;;;;;1.37;0.50;;;;;;;-145.69;51.66;52202.78;5114905;28;20197;-82
2023/11/10 01:01:20;;;;;;;1.17;0.53;;;;;;;-145.69;52.25;52206.75;5114795;28;20227;-82
2023/11/10 01:03:46;;;;;;;0.60;0.50;;;;;;;-145.69;52.26;52234.47;5114519;28;20576;-81
2023/11/10 01:06:14;;;;;;;1.33;0.93;;;;;;;-145.69;51.89;52198.81;5114263;28;20723;-82
2023/11/10 01:08:42;;;;;;;1.03;0.50;;;;;;;-145.69;51.66;52194.88;5114652;28;20200;-82
2023/11/10 01:11:08;;;;;;;1.00;0.40;;;;;;;-145.69;51.85;52206.75;5114336;28;20615;-81
2023/11/10 01:13:36;;;;;;;2.03;0.43;;;;;;;-145.69;52.38;52210.72;5114574;28;20630;-82
2023/11/10 01:16:02;;;;;;;0.83;0.53;;;;;;;-145.69;52.17;52198.81;5113652;28;20292;-82
2023/11/10 01:18:29;;;;;;;0.40;0.40;;;;;;;-145.69;52.21;52204.75;5114551;28;20197;-82
2023/11/10 01:20:56;;;;;;;3.90;0.70;;;;;;;-145.69;52.13;52230.50;5111423;28;20195;-80
2023/11/10 01:23:23;;;;;;;0.47;0.40;;;;;;;-145.69;52.72;52210.72;5113829;28;20679;-82
2023/11/10 01:25:50;;;;;;;0.43;0.40;;;;;;;-145.69;52.62;52274.06;5113795;28;20317;-81
2023/11/10 01:28:18;;;;;;;1.03;0.40;;;;;;;-145.69;52.57;52232.50;5114240;28;20193;-81
2023/11/10 01:30:45;;;;;;;0.50;0.50;;;;;;;-145.69;52.58;52198.81;5114484;28;20247;-81
2023/11/10 01:33:11;;;;;;;1.67;0.60;;;;;;;-145.69;52.52;52226.53;5115670;28;20198;-81
2023/11/10 01:35:38;;;;;;;1.57;0.57;;;;;;;-145.69;53.40;52254.28;5113748;28;20251;-81
2023/11/10 01:38:05;;;;;;;2.63;0.50;;;;;;;-145.69;53.24;52240.41;5113941;28;20209;-81
2023/11/10 01:40:37;;;;;;;0.47;0.47;;;;;;;-145.69;52.64;52226.53;5114470;28;20243;-81
2023/11/10 01:43:08;;;;;;;0.70;0.50;;;;;;;-145.69;52.49;52202.78;5114114;28;20888;-82
2023/11/10 01:45:35;;;;;;;1.20;0.37;;;;;;;-145.69;53.13;52222.59;5113992;28;20233;-81
2023/11/10 01:48:02;;;;;;;0.73;0.47;;;;;;;-145.69;52.68;52206.75;5114016;28;20207;-81
2023/11/10 01:50:29;;;;;;;0.40;0.40;;;;;;;-145.69;52.67;52202.78;5113896;28;20201;-82
2023/11/10 01:52:57;;;;;;;3.40;0.50;;;;;;;-145.69;53.45;52206.75;5114003;28;20190;-82
2023/11/10 01:55:24;;;;;;;3.93;0.47;;;;;;;-145.69;53.43;52212.69;5113666;28;20232;-80
2023/11/10 01:57:51;;;;;;;0.50;0.50;;;;;;;-145.69;53.89;52234.47;5113740;28;20193;-82
2023/11/10 02:00:20;;;;;;;2.00;0.50;;;;;;;-145.69;54.79;52198.81;5113574;28;20194;-82
2023/11/10 02:02:48;;;;;;;1.80;0.50;;;;;;;-145.69;54.79;52234.47;5113773;28;20556;-82
2023/11/10 02:05:14;;;;;;;0.40;0.40;;;;;;;-145.69;55.43;52224.56;5114012;28;20278;-81
2023/11/10 02:07:42;;;;;;;2.47;0.47;;;;;;;-145.69;55.52;52252.28;5113327;28;20244;-81
2023/11/10 02:10:09;;;;;;;0.47;0.47;;;;;;;-145.69;56.09;52214.66;5113884;28;20223;-82
2023/11/10 02:12:36;;;;;;;0.30;0.30;;;;;;;-145.69;55.77;52218.63;5113774;28;20197;-82
2023/11/10 02:15:03;;;;;;;0.33;0.33;;;;;;;-145.69;57.85;52228.53;5113029;28;20194;-81
2023/11/10 02:17:31;;;;;;;0.87;0.37;;;;;;;-145.69;56.86;52216.66;5113273;28;20193;-81
2023/11/10 02:19:57;;;;;;;0.70;0.30;;;;;;;-145.69;57.01;52222.59;5113448;28;20201;-82
2023/11/10 02:22:24;;;;;;;0.53;0.30;;;;;;;-145.69;57.17;52242.38;5112703;28;20189;-81
2023/11/10 02:24:51;;;;;;;0.63;0.50;;;;;;;-145.69;57.30;52222.59;5113090;28;20206;-81
2023/11/10 02:27:19;;;;;;;0.63;0.50;;;;;;;-145.69;57.01;52254.28;5112858;28;20552;-81
2023/11/10 02:29:46;;;;;;;0.40;0.40;;;;;;;-145.69;57.08;52190.91;5113334;28;20204;-81
2023/11/10 02:32:12;;;;;;;0.57;0.40;;;;;;;-145.69;57.16;52242.38;5113253;28;20201;-81
2023/11/10 02:34:39;;;;;;;0.30;0.30;;;;;;;-145.69;56.55;52198.81;5113291;28;20529;-81
2023/11/10 02:37:07;;;;;;;0.93;0.37;;;;;;;-145.69;56.92;52200.81;5113273;28;20664;-81
2023/11/10 02:39:33;;;;;;;0.30;0.30;;;;;;;-145.69;57.77;52212.69;5113389;28;20198;-82
2023/11/10 02:42:00;;;;;;;0.60;0.37;;;;;;;-145.69;57.90;52230.50;5113388;28;20624;-82
2023/11/10 02:44:28;;;;;;;0.77;0.40;;;;;;;-145.69;58.38;52226.53;5113174;28;20626;-81
2023/11/10 02:46:54;;;;;;;0.37;0.37;;;;;;;-145.69;58.05;52268.13;5113236;28;20199;-81
2023/11/10 02:49:21;;;;;;;0.60;0.40;;;;;;;-145.69;57.45;52230.50;5113462;28;20220;-81
2023/11/10 02:51:47;;;;;;;0.30;0.30;;;;;;;-145.69;58.09;52242.38;5112968;28;20197;-81
2023/11/10 02:54:14;;;;;;;0.63;0.30;;;;;;;-145.69;57.75;52222.59;5112778;28;20185;-81
2023/11/10 02:56:41;;;;;;;0.90;0.50;;;;;;;-145.69;58.38;52264.16;5092927;28;20261;-82
2023/11/10 02:59:07;;;;;;;0.40;0.40;;;;;;;-145.69;58.13;52234.47;5099644;28;20189;-81
2023/11/10 03:01:35;;;;;;;0.30;0.30;;;;;;;-145.69;57.86;52220.59;5113505;28;20208;-82
2023/11/10 03:04:02;;;;;;;0.50;0.40;;;;;;;-145.69;58.11;52232.50;5113232;28;20221;-81
2023/11/10 03:06:28;;;;;;;0.33;0.33;;;;;;;-145.69;58.04;52232.50;5112927;28;20579;-81
2023/11/10 03:08:55;;;;;;;0.30;0.30;;;;;;;-145.69;58.07;52230.50;5113054;28;20193;-82
2023/11/10 03:11:22;;;;;;;0.20;0.20;;;;;;;-145.69;58.00;52206.75;5112257;28;20242;-81
2023/11/10 03:13:48;;;;;;;0.40;0.33;;;;;;;-145.69;57.47;52202.78;5093699;28;20190;-82
2023/11/10 03:16:15;;;;;;;0.30;0.30;;;;;;;-145.69;57.67;52206.75;5092534;28;20202;-80
2023/11/10 03:18:43;;;;;;;0.40;0.30;;;;;;;-145.69;57.23;52210.72;5092622;28;20194;-82
2023/11/10 03:21:09;;;;;;;0.30;0.30;;;;;;;-145.69;56.89;52230.50;5103198;28;20773;-82
2023/11/10 03:23:36;;;;;;;0.60;0.33;;;;;;;-145.69;57.19;52228.53;5112835;28;20229;-81
2023/11/10 03:26:03;;;;;;;0.30;0.20;;;;;;;-145.69;57.20;52246.34;5112868;28;20205;-81
2023/11/10 03:28:29;;;;;;;0.40;0.40;;;;;;;-145.69;56.75;52238.44;5113088;28;20208;-81
2023/11/10 03:30:55;;;;;;;0.20;0.20;;;;;;;-145.69;57.03;52240.41;5112958;28;20212;-82
2023/11/10 03:33:22;;;;;;;0.27;0.27;;;;;;;-145.69;56.67;52230.50;5113038;28;20536;-82
2023/11/10 03:35:50;;;;;;;0.83;0.80;;;;;;;-145.69;56.97;52224.56;5112551;28;20212;-81
2023/11/10 03:38:17;;;;;;;0.40;0.40;;;;;;;-145.69;57.15;52256.25;5113518;28;20205;-83
2023/11/10 03:40:43;;;;;;;0.40;0.40;;;;;;;-145.69;56.88;52226.53;5116410;28;20198;-82
2023/11/10 03:43:10;;;;;;;0.30;0.30;;;;;;;-145.69;57.28;52246.34;5115936;28;20702;-81
2023/11/10 03:45:36;;;;;;;0.50;0.30;;;;;;;-145.69;56.50;52236.44;5116452;28;20197;-82
2023/11/10 03:48:03;;;;;;;0.40;0.40;;;;;;;-145.69;56.64;52262.19;5116310;28;20193;-82
2023/11/10 03:50:29;;;;;;;0.30;0.30;;;;;;;-145.69;56.94;52244.38;5115904;28;20651;-82
2023/11/10 03:52:57;;;;;;;0.30;0.30;;;;;;;-145.69;57.35;52198.81;5116292;28;20209;-82
2023/11/10 03:55:23;;;;;;;0.30;0.30;;;;;;;-145.69;57.11;52246.34;5115737;28;20205;-83
2023/11/10 03:57:50;;;;;;;0.40;0.40;;;;;;;-145.69;56.46;52250.31;5116462;28;20205;-81
2023/11/10 04:00:17;;;;;;;0.50;0.40;;;;;;;-145.69;56.59;52238.44;5116431;28;20202;-81
2023/11/10 04:02:44;;;;;;;0.40;0.40;;;;;;;-145.69;56.93;52256.25;5115917;28;20591;-82
2023/11/10 04:05:11;;;;;;;0.40;0.40;;;;;;;-145.69;56.72;52234.47;5116129;28;20193;-81
2023/11/10 04:07:37;;;;;;;1.30;0.33;;;;;;;-145.69;56.62;52238.44;5117534;28;20710;-81
2023/11/10 04:10:06;;;;;;;0.40;0.40;;;;;;;-145.69;56.26;52234.47;5116981;28;20648;-82
2023/11/10 04:12:33;;;;;;;0.30;0.30;;;;;;;-145.69;56.75;52262.19;5116024;28;20623;-81
2023/11/10 04:14:59;;;;;;;0.30;0.30;;;;;;;-145.69;56.35;52258.22;5115602;28;20194;-81
2023/11/10 04:17:26;;;;;;;0.50;0.50;;;;;;;-145.69;56.68;52218.63;5115265;28;20568;-81
2023/11/10 04:19:52;;;;;;;0.60;0.60;;;;;;;-145.69;56.54;52248.34;5114935;28;20198;-82
2023/11/10 04:22:19;;;;;;;0.40;0.40;;;;;;;-145.69;56.25;52202.78;5115928;28;20213;-82
2023/11/10 04:24:45;;;;;;;0.33;0.33;;;;;;;-145.69;56.63;52254.28;5115670;28;20249;-82
2023/11/10 04:27:14;;;;;;;0.33;0.33;;;;;;;-145.69;56.55;52262.19;5117107;28;20193;-82
2023/11/10 04:29:40;;;;;;;0.33;0.30;;;;;;;-145.69;56.62;52224.56;5116956;28;20201;-82
2023/11/10 04:32:07;;;;;;;0.93;0.40;;;;;;;-145.69;56.27;52228.53;5117880;28;20202;-81
2023/11/10 04:34:33;;;;;;;0.40;0.40;;;;;;;-145.69;56.14;52238.44;5120397;28;20545;-82
2023/11/10 04:37:00;;;;;;;0.40;0.40;;;;;;;-145.69;56.11;52250.31;5119036;28;20201;-82
2023/11/10 04:39:26;;;;;;;0.50;0.50;;;;;;;-145.69;55.58;52252.28;5120451;28;20219;-81
2023/11/10 04:41:54;;;;;;;0.50;0.50;;;;;;;-145.69;55.67;52218.63;5115692;28;20205;-82
2023/11/10 04:44:23;;;;;;;0.40;0.40;;;;;;;-145.69;55.59;52234.47;5115566;28;20592;-82
2023/11/10 04:46:49;;;;;;;1.13;0.30;;;;;;;-145.69;55.87;52230.50;5116847;28;20197;-81
2023/11/10 04:49:16;;;;;;;0.53;0.53;;;;;;;-145.69;55.55;52254.28;5115517;28;20194;-82
2023/11/10 04:51:43;;;;;;;0.40;0.40;;;;;;;-145.69;55.03;52230.50;5116089;28;20189;-82
2023/11/10 04:54:11;;;;;;;0.50;0.50;;;;;;;-145.69;55.10;52220.59;5116038;28;20197;-82
2023/11/10 04:56:43;;;;;;;0.30;0.30;;;;;;;-145.69;55.01;52244.38;5116236;28;20212;-82
2023/11/10 04:59:10;;;;;;;0.40;0.40;;;;;;;-145.69;55.33;52244.38;5116010;28;20201;-82
2023/11/10 05:01:39;;;;;;;0.40;0.40;;;;;;;-145.69;54.87;52232.50;5115677;28;20201;-82
2023/11/10 05:04:07;;;;;;;0.40;0.33;;;;;;;-145.69;55.14;52250.31;5116624;28;20225;-82
2023/11/10 05:06:34;;;;;;;0.37;0.37;;;;;;;-145.69;54.50;52208.72;5114479;28;20232;-82
2023/11/10 05:09:00;;;;;;;0.43;0.43;;;;;;;-145.69;55.01;52234.47;5114420;28;20198;-82
2023/11/10 05:11:28;;;;;;;1.13;0.43;;;;;;;-145.69;55.02;52240.41;5105484;28;20248;-82
2023/11/10 05:13:55;;;;;;;0.40;0.40;;;;;;;-145.69;54.83;52218.63;5094483;28;20549;-82
2023/11/10 05:16:22;;;;;;;2.30;0.30;;;;;;;-145.69;55.16;52246.34;5098351;28;20280;-82
2023/11/10 05:18:50;;;;;;;0.57;0.40;;;;;;;-145.69;55.31;52268.13;5115606;28;20200;-82
2023/11/10 05:21:17;;;;;;;0.50;0.50;;;;;;;-145.69;54.48;52242.38;5114497;28;20201;-82
2023/11/10 05:23:44;;;;;;;0.30;0.30;;;;;;;-145.69;55.09;52242.38;5114491;28;20221;-82
2023/11/10 05:26:10;;;;;;;0.40;0.40;;;;;;;-145.69;55.25;52242.38;5114151;28;20563;-82
2023/11/10 05:28:37;;;;;;;0.40;0.40;;;;;;;-145.69;55.30;52264.16;5114368;28;20606;-83
2023/11/10 05:31:04;;;;;;;0.40;0.40;;;;;;;-145.69;55.29;52258.22;5114224;28;20201;-82
2023/11/10 05:33:30;;;;;;;0.40;0.40;;;;;;;-145.69;55.38;52260.22;5114042;28;20205;-82
2023/11/10 05:36:00;;;;;;;0.50;0.50;;;;;;;-145.69;55.34;52238.44;5114332;28;20209;-82
2023/11/10 05:38:27;;;;;;;0.57;0.57;;;;;;;-145.69;55.27;52256.25;5114655;28;20617;-82
2023/11/10 05:40:53;;;;;;;0.50;0.47;;;;;;;-145.69;54.99;52246.34;5114098;28;20201;-82
2023/11/10 05:43:19;;;;;;;0.70;0.50;;;;;;;-145.69;55.42;52214.66;5114004;28;20201;-82
2023/11/10 05:45:46;;;;;;;0.53;0.50;;;;;;;-145.69;55.37;52232.50;5113987;28;20553;-82
2023/11/10 05:48:12;;;;;;;0.73;0.50;;;;;;;-145.69;55.34;52240.41;5113428;28;20540;-82
2023/11/10 05:50:39;;;;;;;0.83;0.47;;;;;;;-145.69;55.47;52236.44;5113147;28;20198;-82
2023/11/10 05:53:07;;;;;;;0.47;0.40;;;;;;;-145.69;55.09;52230.50;5113748;28;20194;-81
2023/11/10 05:55:34;;;;;;;0.30;0.30;;;;;;;-145.69;54.66;52228.53;5113671;28;20205;-82
2023/11/10 05:58:00;;;;;;;0.37;0.37;;;;;;;-145.69;54.62;52260.22;5113862;28;20667;-82
2023/11/10 06:00:27;;;;;;;0.30;0.30;;;;;;;-145.69;54.97;52226.53;5113473;28;20749;-82
2023/11/10 06:02:55;;;;;;;0.20;0.20;;;;;;;-145.69;54.99;52216.66;5113296;28;20216;-82
2023/11/10 06:05:23;;;;;;;0.30;0.30;;;;;;;-145.69;54.74;52202.78;5113809;28;20231;-82
2023/11/10 06:07:54;;;;;;;0.43;0.43;;;;;;;-145.69;55.01;52232.50;5113467;28;20587;-82
2023/11/10 06:10:22;;;;;;;0.40;0.40;;;;;;;-145.69;55.03;52297.84;5113671;28;20208;-82
2023/11/10 06:12:50;;;;;;;0.50;0.50;;;;;;;-145.69;54.91;52246.34;5113387;28;20292;-82
2023/11/10 06:15:17;;;;;;;1.00;0.50;;;;;;;-145.69;55.26;52246.34;5113518;28;20202;-82
2023/11/10 06:17:44;;;;;;;0.40;0.40;;;;;;;-145.69;55.30;52236.44;5113762;28;20197;-82
2023/11/10 06:20:13;;;;;;;0.67;0.67;;;;;;;-145.69;55.50;52226.53;5113035;28;20225;-82
2023/11/10 06:22:40;;;;;;;0.40;0.37;;;;;;;-145.69;55.64;52252.28;5111624;28;20202;-82
2023/11/10 06:25:09;;;;;;;0.40;0.30;;;;;;;-145.69;55.33;52238.44;5113239;28;20228;-82
2023/11/10 06:27:37;;;;;;;0.67;0.50;;;;;;;-145.69;55.39;52218.63;5113119;28;20193;-82
2023/11/10 06:30:04;;;;;;;0.60;0.60;;;;;;;-145.69;55.44;52246.34;5113481;28;20205;-83
2023/11/10 06:32:31;;;;;;;0.50;0.50;;;;;;;-145.69;55.84;52264.16;5113707;28;20204;-83
2023/11/10 06:34:58;;;;;;;0.73;0.40;;;;;;;-145.69;55.64;52230.50;5113573;28;20246;-83
2023/11/10 06:37:25;;;;;;;1.10;0.50;;;;;;;-145.69;55.08;52260.22;5113514;28;20193;-82
2023/11/10 06:39:52;;;;;;;0.60;0.60;;;;;;;-145.69;55.41;52282.00;5115657;28;20599;-81
2023/11/10 06:42:18;;;;;;;0.80;0.50;;;;;;;-145.69;55.87;52190.91;5115317;28;20648;-82
2023/11/10 06:44:47;;;;;;;0.37;0.37;;;;;;;-145.69;55.82;52230.50;5116476;28;20620;-81
2023/11/10 06:47:13;;;;;;;0.67;0.60;;;;;;;-145.69;55.64;52234.47;5116953;28;20292;-82
2023/11/10 06:49:39;;;;;;;0.60;0.60;;;;;;;-145.69;55.14;52210.72;5115121;28;20205;-82
2023/11/10 06:52:06;;;;;;;0.70;0.50;;;;;;;-145.69;55.46;52214.66;5114539;28;20201;-82
2023/11/10 06:54:32;;;;;;;0.73;0.47;;;;;;;-145.69;55.42;52264.16;5113301;28;20198;-82
2023/11/10 06:56:59;;;;;;;0.40;0.40;;;;;;;-145.69;55.94;52224.56;5113083;28;20201;-82
2023/11/10 06:59:28;;;;;;;0.40;0.40;;;;;;;-145.69;55.21;52214.66;5113208;28;20197;-82
2023/11/10 07:01:57;;;;;;;0.73;0.70;;;;;;;-145.69;55.74;52226.53;5113169;28;20198;-82
2023/11/10 07:04:24;;;;;;;0.60;0.60;;;;;;;-145.69;56.97;52250.31;5112028;28;20542;-82
2023/11/10 07:06:51;;;;;;;0.70;0.70;;;;;;;-145.69;55.95;52246.34;5112942;28;20306;-82
2023/11/10 07:09:17;;;;;;;1.30;0.40;;;;;;;-145.69;55.76;52214.66;5112925;28;20197;-83
2023/11/10 07:11:44;;;;;;;0.53;0.53;;;;;;;-145.69;55.88;52240.41;5113961;28;20556;-83
2023/11/10 07:14:10;;;;;;;0.50;0.50;;;;;;;-145.69;55.37;52238.44;5117422;28;20205;-83
2023/11/10 07:16:37;;;;;;;0.67;0.53;;;;;;;-145.69;55.25;52242.38;5117298;28;20205;-83
2023/11/10 07:19:06;;;;;;;0.60;0.60;;;;;;;-145.69;55.48;52246.34;5114221;27;20599;-82
2023/11/10 07:21:33;;;;;;;1.20;0.63;;;;;;;-145.69;55.66;52282.00;5109829;28;20650;-83
2023/11/10 07:24:00;;;;;;;1.80;0.77;;;;;;;-145.69;55.53;52226.53;5119449;28;20197;-82
2023/11/10 07:26:26;;;;;;;2.37;1.33;;;;;;;-145.69;55.59;52230.50;5124709;28;20189;-82
2023/11/10 07:28:53;;;;;;;1.07;0.83;;;;;;;-145.69;55.39;52252.28;5124122;28;20193;-82
2023/11/10 07:31:20;;;;;;;0.60;0.60;;;;;;;-145.69;55.45;52264.16;5125067;28;20197;-82
2023/11/10 07:33:46;;;;;;;2.17;0.80;;;;;;;-145.69;55.08;52228.53;5120373;27;20560;-82
2023/11/10 07:36:14;;;;;;;0.50;0.50;;;;;;;-145.69;54.84;52210.72;5118262;28;20652;-83
2023/11/10 07:38:41;;;;;;;2.83;0.80;;;;;;;-145.69;54.27;52250.31;5119176;28;20189;-82
2023/11/10 07:41:07;;;;;;;0.67;0.53;;;;;;;-145.69;55.02;52222.59;5116491;28;20243;-81
2023/11/10 07:43:34;;;;;;;0.90;0.57;;;;;;;-145.69;54.71;52222.59;5116649;28;20194;-81
2023/11/10 07:46:04;;;;;;;0.40;0.40;;;;;;;-145.69;54.11;52262.19;5116605;28;20233;-81
2023/11/10 07:48:30;;;;;;;0.50;0.50;;;;;;;-145.69;54.40;52242.38;5116008;28;20574;-81
2023/11/10 07:50:57;;;;;;;0.80;0.30;;;;;;;-145.69;54.21;52220.59;5115906;28;20197;-81
2023/11/10 07:53:26;;;;;;;0.57;0.57;;;;;;;-145.69;54.25;52208.72;5116360;28;20262;-82
2023/11/10 07:55:53;;;;;;;0.40;0.40;;;;;;;-145.69;54.36;52242.38;5116165;28;20606;-82
2023/11/10 07:58:20;;;;;;;0.40;0.40;;;;;;;-145.69;54.53;52218.63;5116242;28;20664;-82
2023/11/10 08:00:47;;;;;;;1.07;0.60;;;;;;;-145.69;54.16;52210.72;5116150;28;20636;-82
2023/11/10 08:03:14;;;;;;;0.73;0.40;;;;;;;-145.69;53.65;52208.72;5115914;28;20646;-81
2023/11/10 08:05:40;;;;;;;0.60;0.50;;;;;;;-145.69;53.81;52194.88;5115824;28;20229;-82
2023/11/10 08:08:07;;;;;;;1.23;0.50;;;;;;;-145.69;53.56;52234.47;5116008;28;20658;-81
2023/11/10 08:10:35;;;;;;;0.80;0.60;;;;;;;-145.69;53.39;52206.75;5116019;28;20273;-82
2023/11/10 08:13:01;;;;;;;0.43;0.43;;;;;;;-145.69;53.58;52210.72;5116068;28;20201;-82
2023/11/10 08:15:28;;;;;;;0.67;0.40;;;;;;;-145.69;53.21;52266.16;5116723;28;20197;-81
2023/11/10 08:17:55;;;;;;;0.70;0.70;;;;;;;-145.69;53.47;52222.59;5116110;28;20203;-81
2023/11/10 08:20:24;;;;;;;0.70;0.63;;;;;;;-145.69;53.19;52206.75;5115921;28;20227;-81
2023/11/10 08:22:50;;;;;;;0.90;0.60;;;;;;;-145.69;52.82;52198.81;5116934;28;20233;-81
2023/11/10 08:25:17;;;;;;;1.27;0.70;;;;;;;-145.69;51.96;52228.53;5114641;28;20232;-81
2023/11/10 08:27:45;;;;;;;0.70;0.70;;;;;;;-145.69;52.18;52204.75;5116153;28;20193;-81
2023/11/10 08:30:13;;;;;;;0.53;0.53;;;;;;;-145.69;51.40;52236.44;5118013;28;20322;-80
2023/11/10 08:32:40;;;;;;;0.40;0.40;;;;;;;-145.69;51.61;52196.84;5118269;28;20278;-81
2023/11/10 08:35:08;;;;;;;1.53;0.73;;;;;;;-145.69;51.86;52230.50;5116690;27;20207;-81
2023/11/10 08:37:35;;;;;;;1.33;0.73;;;;;;;-145.69;51.78;52240.41;5115788;28;20644;-81
2023/11/10 08:40:03;;;;;;;1.10;0.90;;;;;;;-145.69;51.97;52198.81;5115769;28;20556;-81
2023/11/10 08:42:29;;;;;;;1.87;0.60;;;;;;;-145.69;51.69;52214.66;5115500;28;20288;-81
2023/11/10 08:44:57;;;;;;;1.00;0.70;;;;;;;-145.69;51.99;52206.75;5116315;28;20321;-81
2023/11/10 08:47:23;;;;;;;0.50;0.50;;;;;;;-145.69;51.30;52240.41;5116586;28;20194;-82
2023/11/10 08:49:52;;;;;;;0.50;0.50;;;;;;;-145.69;51.58;52234.47;5119070;28;20202;-81
2023/11/10 08:52:19;;;;;;;0.50;0.50;;;;;;;-145.69;51.78;52220.59;5120430;28;20235;-82
2023/11/10 08:54:46;;;;;;;0.93;0.70;;;;;;;-145.69;51.37;52220.59;5118416;28;20271;-83
2023/11/10 08:57:13;;;;;;;1.40;0.90;;;;;;;-145.69;52.07;52240.41;5117653;28;20209;-83
2023/11/10 08:59:39;;;;;;;1.70;0.90;;;;;;;-145.69;52.62;52214.66;5116116;28;20644;-82
2023/11/10 09:02:07;;;;;;;2.07;1.10;;;;;;;-145.69;52.80;52242.38;5116963;28;20280;-83
2023/11/10 09:04:34;;;;;;;0.53;0.43;;;;;;;-145.69;52.78;52234.47;5115307;28;20208;-82
2023/11/10 09:07:00;;;;;;;0.90;0.60;;;;;;;-145.69;52.95;52184.97;5114174;28;20233;-83
2023/11/10 09:09:28;;;;;;;1.97;0.90;;;;;;;-145.69;53.69;52214.66;5114963;28;20197;-83
2023/11/10 09:11:54;;;;;;;0.87;0.53;;;;;;;-145.69;53.61;52206.75;5114549;28;20219;-83
2023/11/10 09:14:21;;;;;;;0.30;0.30;;;;;;;-145.69;53.17;52194.88;5115331;27;20219;-83
2023/11/10 09:16:47;;;;;;;1.30;0.50;;;;;;;-145.69;53.27;52222.59;5105024;28;20671;-83
2023/11/10 09:19:15;;;;;;;1.13;0.57;;;;;;;-145.69;53.04;52206.75;5114730;28;20201;-83
2023/11/10 09:21:42;;;;;;;1.00;0.47;;;;;;;-145.69;53.40;52212.69;5114583;28;20254;-83
2023/11/10 09:24:08;;;;;;;0.47;0.47;;;;;;;-145.69;52.26;52196.84;5114530;28;20193;-83
2023/11/10 09:26:36;;;;;;;0.90;0.40;;;;;;;-145.69;52.34;52179.03;5115375;28;20229;-83
2023/11/10 09:29:02;;;;;;;0.50;0.50;;;;;;;-145.69;52.49;52212.69;5115441;28;20201;-83
2023/11/10 09:31:28;;;;;;;0.63;0.63;;;;;;;-145.69;51.77;52200.81;5116074;28;20208;-83
2023/11/10 09:33:55;;;;;;;0.60;0.60;;;;;;;-145.69;51.89;52159.22;5114169;28;20208;-84
2023/11/10 09:36:24;;;;;;;3.50;0.90;;;;;;;-145.69;51.38;52200.81;5113472;28;20197;-83
2023/11/10 09:38:51;;;;;;;1.50;0.77;;;;;;;-145.69;50.87;52218.63;5115144;28;20258;-84
2023/11/10 09:41:23;;;;;;;1.03;0.60;;;;;;;-145.69;51.09;52198.81;5114532;28;20544;-84
2023/11/10 09:43:50;;;;;;;0.87;0.60;;;;;;;-145.69;51.23;52192.88;5114413;28;20193;-84
2023/11/10 09:46:20;;;;;;;2.00;0.50;;;;;;;-145.69;52.54;52208.72;5114056;28;20281;-83
2023/11/10 09:48:47;;;;;;;0.93;0.40;;;;;;;-145.69;51.90;52181.00;5113688;28;20655;-84
2023/11/10 09:51:14;;;;;;;3.20;0.73;;;;;;;-145.69;51.08;52210.72;5114406;28;20198;-83
2023/11/10 09:53:44;;;;;;;0.50;0.50;;;;;;;-145.69;51.81;52177.03;5115680;28;20204;-83
2023/11/10 09:56:12;;;;;;;1.47;0.40;;;;;;;-145.69;51.83;52171.09;5114756;28;20675;-83
2023/11/10 09:58:39;;;;;;;0.83;0.60;;;;;;;-145.69;52.53;52232.50;5114101;28;20193;-83
2023/11/10 10:01:07;;;;;;;1.93;0.70;;;;;;;-145.69;52.74;52198.81;5113775;27;20201;-83
2023/11/10 10:03:33;;;;;;;0.70;0.50;;;;;;;-145.69;53.07;52218.63;5113419;28;20233;-83
2023/11/10 10:06:00;;;;;;;1.20;0.80;;;;;;;-145.69;52.82;52194.88;5113629;28;20232;-83
2023/11/10 10:08:27;;;;;;;7.70;2.43;;;;;;;-145.69;54.11;52232.50;5113949;28;20209;-84
2023/11/10 10:10:55;;;;;;;2.63;1.10;;;;;;;-145.69;54.03;52210.72;5113643;28;20190;-84
2023/11/10 10:13:22;;;;;;;1.83;1.33;;;;;;;-145.69;53.72;52202.78;5114857;28;20533;-84
2023/11/10 10:15:49;;;;;;;1.23;0.67;;;;;;;-145.69;53.72;52226.53;5114195;28;20293;-84
2023/11/10 10:18:16;;;;;;;2.50;1.73;;;;;;;-145.69;54.21;52181.00;5111448;28;20213;-84
2023/11/10 10:20:43;;;;;;;1.13;0.93;;;;;;;-145.69;54.30;52222.59;5112382;28;20193;-83
2023/11/10 10:23:10;;;;;;;0.90;0.70;;;;;;;-145.69;53.89;52204.75;5112184;28;20202;-83
2023/11/10 10:25:38;;;;;;;0.80;0.70;;;;;;;-145.69;54.42;52252.28;5111537;28;20318;-84
2023/11/10 10:28:07;;;;;;;0.60;0.50;;;;;;;-145.69;54.41;52230.50;5112730;28;20233;-84
2023/11/10 10:30:33;;;;;;;2.17;0.60;;;;;;;-145.69;54.43;52236.44;5112622;28;20220;-83
2023/11/10 10:33:00;;;;;;;1.50;0.63;;;;;;;-145.69;55.24;52198.81;5113177;28;20200;-83
2023/11/10 10:35:27;;;;;;;1.10;0.53;;;;;;;-145.69;54.00;52250.31;5113156;28;20197;-83
2023/11/10 10:38:04;;;;;;;1.53;0.50;;;;;;;-145.69;53.95;52238.44;5112837;28;20694;-82
2023/11/10 10:40:32;;;;;;;0.43;0.33;;;;;;;-145.69;54.76;52248.34;5113375;28;20605;-82
2023/11/10 10:42:58;;;;;;;1.93;0.50;;;;;;;-145.69;54.63;52198.81;5107866;28;20722;-83
2023/11/10 10:45:27;;;;;;;1.90;0.57;;;;;;;-145.69;54.51;52216.66;5113144;28;20221;-83
2023/11/10 10:47:58;;;;;;;0.60;0.40;;;;;;;-145.69;55.33;52230.50;5114827;28;20194;-83
2023/11/10 10:50:27;;;;;;;0.67;0.67;;;;;;;-145.69;56.07;52220.59;5117536;28;20248;-82
2023/11/10 10:52:55;;;;;;;1.70;0.60;;;;;;;-145.69;56.85;52196.84;5117172;28;20283;-82
2023/11/10 10:55:23;;;;;;;4.00;0.60;;;;;;;-145.69;57.09;52210.72;5117661;28;20205;-82
2023/11/10 10:57:50;;;;;;;1.33;0.50;;;;;;;-145.69;57.27;52194.88;5117241;28;20201;-82
2023/11/10 11:00:16;;;;;;;0.77;0.57;;;;;;;-145.69;57.48;52206.75;5117178;28;20258;-82
2023/11/10 11:02:48;;;;;;;0.53;0.50;;;;;;;-145.69;56.38;52198.81;5116386;28;20239;-82
2023/11/10 11:05:30;;;;;;;0.57;0.57;;;;;;;-145.69;55.35;52186.94;5114457;28;20252;-82
2023/11/10 11:08:12;;;;;;;0.50;0.50;;;;;;;-145.69;53.98;52222.59;5115901;27;20232;-82
2023/11/10 11:10:57;;;;;;;1.13;0.50;;;;;;;-145.69;53.61;52171.09;5111927;28;20699;-83
2023/11/10 11:14:06;;;;;;;0.60;0.60;;;;;;;-145.69;51.96;52190.91;5108478;27;20206;-82
2023/11/10 11:17:02;;;;;;;0.70;0.70;;;;;;;-145.69;50.49;52196.84;5106013;28;20200;-84